Airfield :
LOGIN :

Register | Disclaimer

   EN    FR    IT 

 










Legend :    VFR   Marginal VFR   IFR   Intensive IFR   Very Intensive IFR
Visi :
Ceiling :
>= 8 km
>= 3000ft
5 to 8 km
1000 to 3000 ft
1500m to 5 km
500 to 1000 ft
800 to 1500m
200 to 500 ft
< 800m
< 200 ft
Symbols :   Thunderstorms  Fog  Heavy snow  Heavy precipitations  Wind > 20 kt
SIGMETs :     Misc.  Thunderstorms  Icing  Turbulence  Mountain Waves  Volcanic Ashes






- Airport Elevation : 41 ft
- IATA code : PFO


LCPH - Pafos Int.

CURRENT METAR :
  • 221700Z 33005KT 300V010 CAVOK 23/16 Q1017

EXPIRED METARs :
  • 221630Z 35007KT 320V020 CAVOK 22/14 Q1017
  • 221600Z 34004KT CAVOK 23/16 Q1018
  • 221530Z 36005KT 9999 FEW025 24/16 Q1017
  • 221500Z 30009KT 9999 FEW025 25/17 Q1017
  • 221430Z 30008KT 9999 FEW025 26/17 Q1017
  • 221400Z 31009KT 9999 FEW025TCU 26/17 Q1017

TAF TAF LCPH
Valid from the 22 at 12:00 until the 23 at 12:00 UTC


221130Z 2212/2312 32015KT 9999 FEW025
BECMG 2217/2220 03006KT
BECMG 2309/2312 24010KT



MET'MAP, your aeronautical weather chart ! - Copyright ORBIFLY December 2007 - Disclaimer

ORBIFLY MET'MAP TEAM :

Programming & Development : Alexandra Zaïnal
Concept & original design : Baudouin d'Aumeries
Assistance for programming : Marc-Olivier Méhu
Technical & hardware support : Manuel Goepfert

Contact : metmap@orbifly.com




SOURCES & CREDITS :

   NOAA